createdAt,value
2018-08-25T00:00:53.940Z,97393.27
2018-08-25T00:03:21.581Z,97391.89
2018-08-25T00:05:49.236Z,97395.13
2018-08-25T00:08:16.935Z,97389.56
2018-08-25T00:10:44.579Z,97384.64
2018-08-25T00:13:12.212Z,97386.91
2018-08-25T00:15:39.831Z,97383.95
2018-08-25T00:18:08.976Z,97378.63
2018-08-25T00:20:36.736Z,97388.00
2018-08-25T00:23:04.348Z,97380.55
2018-08-25T00:25:31.963Z,97380.86
2018-08-25T00:27:59.610Z,97377.78
2018-08-25T00:30:32.670Z,97368.97
2018-08-25T00:33:00.294Z,97362.80
2018-08-25T00:35:27.896Z,97368.36
2018-08-25T00:37:55.536Z,97362.38
2018-08-25T00:40:23.199Z,97358.22
2018-08-25T00:42:50.931Z,97354.09
2018-08-25T00:45:18.544Z,97356.30
2018-08-25T00:47:46.268Z,97368.16
2018-08-25T00:50:13.862Z,97366.00
2018-08-25T00:52:41.752Z,97367.22
2018-08-25T00:55:09.432Z,97359.09
2018-08-25T00:57:37.116Z,97365.63
2018-08-25T01:00:04.824Z,97362.55
2018-08-25T01:02:32.462Z,97365.65
2018-08-25T01:05:00.154Z,97364.66
2018-08-25T01:07:27.779Z,97359.27
2018-08-25T01:09:55.504Z,97358.42
2018-08-25T01:12:23.182Z,97350.91
2018-08-25T01:14:50.849Z,97343.42
2018-08-25T01:17:18.599Z,97344.97
2018-08-25T01:19:46.227Z,97351.09
2018-08-25T01:22:13.863Z,97363.22
2018-08-25T01:24:41.539Z,97359.98
2018-08-25T01:27:09.174Z,97358.59
2018-08-25T01:29:36.791Z,97358.03
2018-08-25T01:32:04.460Z,97362.58
2018-08-25T01:34:32.093Z,97360.55
2018-08-25T01:36:59.747Z,97369.58
2018-08-25T01:39:27.566Z,97368.34
2018-08-25T01:41:55.270Z,97372.59
2018-08-25T01:44:22.882Z,97369.30
2018-08-25T01:46:50.595Z,97374.42
2018-08-25T01:49:18.199Z,97376.55
2018-08-25T01:51:45.829Z,97382.83
2018-08-25T01:54:13.475Z,97377.34
2018-08-25T01:56:41.102Z,97376.50
2018-08-25T01:59:08.802Z,97386.80
2018-08-25T02:01:36.438Z,97379.95
2018-08-25T02:04:04.048Z,97379.48
2018-08-25T02:06:31.673Z,97377.14
2018-08-25T02:08:59.378Z,97371.80
2018-08-25T02:11:27.024Z,97373.02
2018-08-25T02:13:54.635Z,97374.59
2018-08-25T02:16:22.275Z,97379.35
2018-08-25T02:18:49.887Z,97371.20
2018-08-25T02:21:17.527Z,97375.64
2018-08-25T02:23:45.165Z,97367.41
2018-08-25T02:26:12.783Z,97356.93
2018-08-25T02:28:40.391Z,97359.79
2018-08-25T02:31:08.055Z,97351.06
2018-08-25T02:33:35.703Z,97347.96
2018-08-25T02:36:03.334Z,97336.02
2018-08-25T02:38:31.026Z,97321.97
2018-08-25T02:40:58.662Z,97311.64
2018-08-25T02:43:26.272Z,97307.22
2018-08-25T02:45:53.939Z,97296.34
2018-08-25T02:48:21.613Z,97301.15
2018-08-25T02:50:49.205Z,97299.83
2018-08-25T02:53:16.846Z,97300.07
2018-08-25T02:55:44.462Z,97289.95
2018-08-25T02:58:12.142Z,97294.67
2018-08-25T03:00:39.795Z,97286.51
2018-08-25T03:03:07.424Z,97280.70
2018-08-25T03:05:35.111Z,97277.31
2018-08-25T03:08:02.743Z,97279.23
2018-08-25T03:10:30.372Z,97269.11
2018-08-25T03:12:57.990Z,97269.56
2018-08-25T03:15:25.643Z,97271.03
2018-08-25T03:17:53.321Z,97276.92
2018-08-25T03:20:20.919Z,97261.36
2018-08-25T03:22:48.548Z,97255.22
2018-08-25T03:25:16.151Z,97254.86
2018-08-25T03:27:43.804Z,97259.25
2018-08-25T03:30:11.462Z,97259.53
2018-08-25T03:32:39.066Z,97258.69
2018-08-25T03:35:06.687Z,97250.10
2018-08-25T03:37:34.325Z,97253.38
2018-08-25T03:40:02.088Z,97252.69
2018-08-25T03:42:29.720Z,97252.33
2018-08-25T03:44:57.363Z,97251.77
2018-08-25T03:47:24.970Z,97251.48
2018-08-25T03:49:52.552Z,97256.77
2018-08-25T03:52:20.221Z,97249.92
2018-08-25T03:54:47.831Z,97257.56
2018-08-25T03:57:15.419Z,97252.13
2018-08-25T03:59:43.080Z,97249.66
2018-08-25T04:02:10.671Z,97252.02
2018-08-25T04:04:38.316Z,97258.01
2018-08-25T04:07:06.059Z,97255.69
2018-08-25T04:09:33.685Z,97253.49
2018-08-25T04:12:01.309Z,97254.89
2018-08-25T04:14:28.951Z,97255.69
2018-08-25T04:16:56.587Z,97254.56
2018-08-25T04:19:24.189Z,97257.41
2018-08-25T04:21:51.812Z,97256.02
2018-08-25T04:24:19.461Z,97262.23
2018-08-25T04:26:47.074Z,97270.39
2018-08-25T04:29:14.808Z,97278.50
2018-08-25T04:31:42.428Z,97282.30
2018-08-25T04:34:10.078Z,97278.67
2018-08-25T04:36:37.719Z,97277.39
2018-08-25T04:39:08.037Z,97282.16
2018-08-25T04:41:35.847Z,97280.63
2018-08-25T04:44:03.755Z,97281.98
2018-08-25T04:46:31.370Z,97278.45
2018-08-25T04:48:58.984Z,97273.91
2018-08-25T04:51:26.691Z,97276.87
2018-08-25T04:53:54.406Z,97283.22
2018-08-25T04:56:22.029Z,97276.62
2018-08-25T04:58:49.651Z,97281.70
2018-08-25T05:01:17.246Z,97269.05
2018-08-25T05:03:44.932Z,97270.03
2018-08-25T05:06:12.577Z,97268.00
2018-08-25T05:08:40.185Z,97274.16
2018-08-25T05:11:07.790Z,97271.91
2018-08-25T05:13:35.477Z,97268.28
2018-08-25T05:16:03.127Z,97263.97
2018-08-25T05:18:30.743Z,97267.00
2018-08-25T05:20:58.405Z,97268.23
2018-08-25T05:23:26.046Z,97274.71
2018-08-25T05:25:53.707Z,97278.40
2018-08-25T05:28:21.383Z,97275.04
2018-08-25T05:30:49.016Z,97275.68
2018-08-25T05:33:16.627Z,97279.08
2018-08-25T05:35:44.287Z,97277.28
2018-08-25T05:38:12.100Z,97276.00
2018-08-25T05:40:39.729Z,97274.88
2018-08-25T05:43:07.408Z,97283.11
2018-08-25T05:45:35.070Z,97279.88
2018-08-25T05:48:02.698Z,97280.48
2018-08-25T05:50:30.320Z,97271.41
2018-08-25T05:52:57.912Z,97276.20
2018-08-25T05:55:25.609Z,97282.20
2018-08-25T05:57:53.266Z,97285.35
2018-08-25T06:00:20.875Z,97284.91
2018-08-25T06:02:48.479Z,97287.63
2018-08-25T06:05:16.124Z,97286.79
2018-08-25T06:07:43.738Z,97284.19
2018-08-25T06:10:11.392Z,97286.63
2018-08-25T06:12:39.082Z,97289.91
2018-08-25T06:15:06.705Z,97292.79
2018-08-25T06:17:34.321Z,97289.52
2018-08-25T06:20:01.973Z,97276.00
2018-08-25T06:22:29.641Z,97282.43
2018-08-25T06:24:57.289Z,97280.03
2018-08-25T06:27:24.911Z,97285.97
2018-08-25T06:29:52.686Z,97290.09
2018-08-25T06:32:20.276Z,97288.34
2018-08-25T06:34:47.967Z,97283.43
2018-08-25T06:37:15.604Z,97287.98
2018-08-25T06:39:43.211Z,97284.62
2018-08-25T06:42:10.894Z,97279.52
2018-08-25T06:44:38.529Z,97283.84
2018-08-25T06:47:06.244Z,97281.31
2018-08-25T06:49:33.941Z,97287.44
2018-08-25T06:52:01.587Z,97286.91
2018-08-25T06:54:29.208Z,97292.92
2018-08-25T06:56:56.864Z,97280.59
2018-08-25T06:59:24.540Z,97284.35
2018-08-25T07:01:52.135Z,97287.16
2018-08-25T07:04:19.813Z,97291.34
2018-08-25T07:06:47.460Z,97291.66
2018-08-25T07:09:15.108Z,97295.31
2018-08-25T07:11:42.803Z,97297.78
2018-08-25T07:14:10.841Z,97298.44
2018-08-25T07:16:38.708Z,97292.67
2018-08-25T07:19:06.461Z,97287.62
2018-08-25T07:21:34.080Z,97293.42
2018-08-25T07:24:01.831Z,97294.53
2018-08-25T07:26:29.511Z,97301.52
2018-08-25T07:28:57.263Z,97301.00
2018-08-25T07:31:24.864Z,97300.88
2018-08-25T07:33:52.537Z,97304.33
2018-08-25T07:36:20.151Z,97304.25
2018-08-25T07:38:47.762Z,97296.59
2018-08-25T07:41:15.404Z,97296.78
2018-08-25T07:43:43.022Z,97307.05
2018-08-25T07:46:10.657Z,97308.05
2018-08-25T07:48:38.429Z,97315.77
2018-08-25T07:51:06.146Z,97318.33
2018-08-25T07:53:33.793Z,97323.18
2018-08-25T07:56:01.553Z,97316.23
2018-08-25T07:58:29.312Z,97317.98
2018-08-25T08:00:57.012Z,97312.22
2018-08-25T08:03:24.643Z,97321.16
2018-08-25T08:05:52.260Z,97320.84
2018-08-25T08:08:19.884Z,97322.69
2018-08-25T08:10:47.731Z,97322.60
2018-08-25T08:13:15.629Z,97322.28
2018-08-25T08:15:43.960Z,97325.75
2018-08-25T08:18:11.625Z,97318.83
2018-08-25T08:20:39.495Z,97323.86
2018-08-25T08:23:07.508Z,97323.49
2018-08-25T08:25:35.427Z,97326.23
2018-08-25T08:28:03.046Z,97327.29
2018-08-25T08:30:30.710Z,97330.62
2018-08-25T08:32:58.409Z,97325.16
2018-08-25T08:35:26.055Z,97324.95
2018-08-25T08:37:53.984Z,97322.60
2018-08-25T08:40:21.636Z,97339.52
2018-08-25T08:42:49.275Z,97339.00
2018-08-25T08:45:16.956Z,97342.21
2018-08-25T08:47:44.778Z,97336.19
2018-08-25T08:50:12.443Z,97327.99
2018-08-25T08:52:40.072Z,97336.97
2018-08-25T08:55:08.112Z,97328.77
2018-08-25T08:57:36.088Z,97326.56
2018-08-25T09:00:04.173Z,97327.06
2018-08-25T09:02:31.800Z,97324.53
2018-08-25T09:04:59.470Z,97321.05
2018-08-25T09:07:27.117Z,97320.89
2018-08-25T09:09:54.801Z,97313.41
2018-08-25T09:12:22.440Z,97319.77
2018-08-25T09:14:50.099Z,97319.55
2018-08-25T09:17:17.828Z,97319.53
2018-08-25T09:19:45.484Z,97315.58
2018-08-25T09:22:13.110Z,97312.46
2018-08-25T09:24:40.777Z,97310.09
2018-08-25T09:27:08.409Z,97308.81
2018-08-25T09:29:36.020Z,97308.29
2018-08-25T09:32:03.800Z,97311.78
2018-08-25T09:34:31.463Z,97307.47
2018-08-25T09:36:59.290Z,97301.83
2018-08-25T09:39:26.835Z,97302.30
2018-08-25T09:41:54.558Z,97301.00
2018-08-25T09:44:22.174Z,97300.58
2018-08-25T09:46:49.918Z,97311.73
2018-08-25T09:49:17.526Z,97302.05
2018-08-25T09:51:45.177Z,97289.28
2018-08-25T09:54:12.828Z,97293.16
2018-08-25T09:56:40.545Z,97306.28
2018-08-25T09:59:08.201Z,97304.88
2018-08-25T10:01:41.349Z,97320.96
2018-08-25T10:04:09.099Z,97298.53
2018-08-25T10:06:36.711Z,97299.53
2018-08-25T10:09:05.975Z,97297.17
2018-08-25T10:11:33.610Z,97295.10
2018-08-25T10:14:01.249Z,97291.15
2018-08-25T10:16:28.977Z,97289.85
2018-08-25T10:18:56.644Z,97292.06
2018-08-25T10:21:24.256Z,97279.42
2018-08-25T10:23:51.972Z,97294.36
2018-08-25T10:26:19.713Z,97290.96
2018-08-25T10:28:47.347Z,97277.19
2018-08-25T10:31:15.040Z,97279.25
2018-08-25T10:33:42.663Z,97291.72
2018-08-25T10:36:10.265Z,97283.78
2018-08-25T10:38:37.933Z,97280.66
2018-08-25T10:41:05.726Z,97287.38
2018-08-25T10:43:33.343Z,97291.06
2018-08-25T10:46:00.994Z,97289.02
2018-08-25T10:48:28.628Z,97279.53
2018-08-25T10:50:56.219Z,97292.16
2018-08-25T10:53:23.847Z,97288.34
2018-08-25T10:55:51.462Z,97286.06
2018-08-25T10:58:19.320Z,97297.63
2018-08-25T11:00:47.221Z,97296.88
2018-08-25T11:03:14.652Z,97290.45
2018-08-25T11:05:42.348Z,97300.81
2018-08-25T11:08:10.003Z,97299.92
2018-08-25T11:10:37.622Z,97295.55
2018-08-25T11:13:05.311Z,97304.25
2018-08-25T11:15:32.971Z,97298.63
2018-08-25T11:18:00.647Z,97298.39
2018-08-25T11:20:28.315Z,97294.40
2018-08-25T11:22:56.024Z,97296.06
2018-08-25T11:25:24.396Z,97288.39
2018-08-25T11:27:52.040Z,97282.14
2018-08-25T11:30:19.916Z,97282.80
2018-08-25T11:32:47.619Z,97280.36
2018-08-25T11:35:15.484Z,97282.59
2018-08-25T11:37:43.195Z,97285.22
2018-08-25T11:40:10.810Z,97290.95
2018-08-25T11:42:38.497Z,97292.27
2018-08-25T11:45:06.526Z,97289.47
2018-08-25T11:47:34.323Z,97296.45
2018-08-25T11:50:01.972Z,97291.30
2018-08-25T11:52:29.615Z,97294.86
2018-08-25T11:54:57.232Z,97290.23
2018-08-25T11:57:24.847Z,97286.72
2018-08-25T11:59:52.516Z,97293.68
2018-08-25T12:02:20.209Z,97292.37
2018-08-25T12:04:47.831Z,97290.73
2018-08-25T12:07:15.452Z,97294.84
2018-08-25T12:09:43.217Z,97299.80
2018-08-25T12:12:10.832Z,97298.30
2018-08-25T12:14:38.459Z,97305.43
2018-08-25T12:17:06.448Z,97306.25
2018-08-25T12:19:34.350Z,97305.45
2018-08-25T12:22:02.213Z,97312.49
2018-08-25T12:24:29.900Z,97314.24
2018-08-25T12:27:00.185Z,97305.86
2018-08-25T12:29:28.037Z,97308.23
2018-08-25T12:31:55.676Z,97313.05
2018-08-25T12:34:23.277Z,97304.53
2018-08-25T12:36:50.940Z,97313.43
2018-08-25T12:39:18.543Z,97321.13
2018-08-25T12:41:46.192Z,97324.80
2018-08-25T12:44:13.837Z,97322.00
2018-08-25T12:46:41.478Z,97314.40
2018-08-25T12:49:09.102Z,97322.03
2018-08-25T12:51:36.804Z,97312.24
2018-08-25T12:54:04.588Z,97309.51
2018-08-25T12:56:32.396Z,97318.26
2018-08-25T12:59:00.060Z,97317.16
2018-08-25T13:01:27.736Z,97323.76
2018-08-25T13:03:55.398Z,97314.70
2018-08-25T13:06:23.040Z,97321.92
2018-08-25T13:08:50.658Z,97313.11
2018-08-25T13:11:18.294Z,97315.11
2018-08-25T13:13:45.939Z,97308.71
2018-08-25T13:16:13.558Z,97315.16
2018-08-25T13:18:41.247Z,97311.49
2018-08-25T13:21:09.004Z,97330.67
2018-08-25T13:23:36.640Z,97303.36
2018-08-25T13:26:04.294Z,97322.90
2018-08-25T13:28:32.013Z,97327.83
2018-08-25T13:30:59.710Z,97326.00
2018-08-25T13:33:27.383Z,97323.00
2018-08-25T13:35:55.036Z,97317.32
2018-08-25T13:38:22.812Z,97313.16
2018-08-25T13:40:50.512Z,97318.75
2018-08-25T13:43:18.360Z,97314.02
2018-08-25T13:45:46.148Z,97313.16
2018-08-25T13:48:13.765Z,97315.13
2018-08-25T13:50:41.804Z,97315.12
2018-08-25T13:53:10.093Z,97314.38
2018-08-25T13:55:37.816Z,97302.37
2018-08-25T13:58:05.610Z,97308.77
2018-08-25T14:00:33.224Z,97304.66
2018-08-25T14:03:00.852Z,97313.32
2018-08-25T14:05:28.520Z,97315.02
2018-08-25T14:07:56.179Z,97310.39
2018-08-25T14:10:23.802Z,97314.61
2018-08-25T14:12:51.537Z,97323.98
2018-08-25T14:15:19.144Z,97316.50
2018-08-25T14:17:46.756Z,97317.14
2018-08-25T14:20:14.436Z,97320.91
2018-08-25T14:22:42.169Z,97309.14
2018-08-25T14:25:09.877Z,97303.37
2018-08-25T14:27:37.555Z,97308.44
2018-08-25T14:30:06.239Z,97298.02
2018-08-25T14:32:34.074Z,97308.65
2018-08-25T14:35:01.972Z,97310.42
2018-08-25T14:37:29.603Z,97304.80
2018-08-25T14:39:57.300Z,97314.59
2018-08-25T14:42:25.023Z,97312.66
2018-08-25T14:44:52.666Z,97316.46
2018-08-25T14:47:20.363Z,97305.17
2018-08-25T14:49:48.088Z,97302.19
2018-08-25T14:52:15.887Z,97299.06
2018-08-25T14:54:43.658Z,97300.83
2018-08-25T14:57:11.378Z,97300.45
2018-08-25T14:59:39.011Z,97311.53
2018-08-25T15:02:06.754Z,97307.92
2018-08-25T15:04:34.427Z,97310.77
2018-08-25T15:07:02.150Z,97310.70
2018-08-25T15:09:29.743Z,97314.62
2018-08-25T15:11:57.515Z,97320.77
2018-08-25T15:14:25.254Z,97318.78
2018-08-25T15:16:52.890Z,97328.63
2018-08-25T15:19:20.586Z,97326.40
2018-08-25T15:21:48.219Z,97316.03
2018-08-25T15:24:15.858Z,97319.87
2018-08-25T15:26:43.820Z,97316.27
2018-08-25T15:29:11.532Z,97319.39
2018-08-25T15:31:39.291Z,97313.78
2018-08-25T15:34:07.764Z,97324.31
2018-08-25T15:36:35.781Z,97320.42
2018-08-25T15:39:06.823Z,97329.42
2018-08-25T15:41:34.476Z,97319.59
2018-08-25T15:44:02.091Z,97323.67
2018-08-25T15:46:29.715Z,97323.23
2018-08-25T15:48:57.309Z,97322.35
2018-08-25T15:51:25.087Z,97326.19
2018-08-25T15:53:52.748Z,97330.83
2018-08-25T15:56:20.381Z,97322.62
2018-08-25T15:58:48.251Z,97324.06
2018-08-25T16:01:15.963Z,97317.63
2018-08-25T16:03:44.306Z,97320.48
2018-08-25T16:06:12.708Z,97326.13
2018-08-25T16:08:40.340Z,97320.90
2018-08-25T16:11:08.049Z,97328.30
2018-08-25T16:13:35.640Z,97324.18
2018-08-25T16:16:03.323Z,97333.70
2018-08-25T16:18:30.995Z,97326.37
2018-08-25T16:20:58.655Z,97320.81
2018-08-25T16:23:26.323Z,97319.90
2018-08-25T16:25:53.920Z,97333.13
2018-08-25T16:28:21.531Z,97328.17
2018-08-25T16:30:49.152Z,97331.76
2018-08-25T16:33:16.765Z,97319.59
2018-08-25T16:35:44.365Z,97321.63
2018-08-25T16:38:12.018Z,97319.22
2018-08-25T16:40:39.629Z,97322.12
2018-08-25T16:43:07.498Z,97329.59
2018-08-25T16:45:35.170Z,97328.19
2018-08-25T16:48:02.823Z,97340.52
2018-08-25T16:50:30.428Z,97335.45
2018-08-25T16:52:58.087Z,97332.65
2018-08-25T16:55:26.219Z,97338.75
2018-08-25T16:57:53.828Z,97342.89
2018-08-25T17:00:21.481Z,97345.68
2018-08-25T17:02:49.116Z,97355.19
2018-08-25T17:05:16.741Z,97348.53
2018-08-25T17:07:44.408Z,97344.66
2018-08-25T17:10:12.157Z,97350.93
2018-08-25T17:12:39.778Z,97356.17
2018-08-25T17:15:07.574Z,97352.22
2018-08-25T17:17:35.264Z,97347.91
2018-08-25T17:20:02.939Z,97359.39
2018-08-25T17:22:30.567Z,97352.97
2018-08-25T17:24:58.211Z,97360.72
2018-08-25T17:27:25.868Z,97350.48
2018-08-25T17:29:53.513Z,97361.95
2018-08-25T17:32:21.140Z,97352.59
2018-08-25T17:34:48.764Z,97364.92
2018-08-25T17:37:16.448Z,97365.56
2018-08-25T17:39:44.106Z,97369.58
2018-08-25T17:42:11.844Z,97369.13
2018-08-25T17:44:39.474Z,97369.69
2018-08-25T17:47:07.136Z,97365.22
2018-08-25T17:49:34.787Z,97359.48
2018-08-25T17:52:02.448Z,97360.12
2018-08-25T17:54:30.084Z,97371.52
2018-08-25T17:56:57.767Z,97383.97
2018-08-25T17:59:25.405Z,97381.16
2018-08-25T18:01:53.074Z,97381.38
2018-08-25T18:04:20.704Z,97391.84
2018-08-25T18:06:48.495Z,97389.95
2018-08-25T18:09:16.122Z,97397.53
2018-08-25T18:11:43.757Z,97401.13
2018-08-25T18:14:11.649Z,97397.06
2018-08-25T18:16:39.328Z,97408.83
2018-08-25T18:19:07.053Z,97413.70
2018-08-25T18:21:34.792Z,97428.30
2018-08-25T18:24:02.516Z,97424.03
2018-08-25T18:26:30.248Z,97438.95
2018-08-25T18:28:57.893Z,97435.08
2018-08-25T18:31:26.518Z,97447.92
2018-08-25T18:33:54.162Z,97452.89
2018-08-25T18:36:21.824Z,97451.62
2018-08-25T18:38:49.440Z,97458.13
2018-08-25T18:41:17.066Z,97462.23
2018-08-25T18:43:44.719Z,97472.44
2018-08-25T18:46:12.354Z,97475.88
2018-08-25T18:48:40.040Z,97487.17
2018-08-25T18:51:07.809Z,97487.96
2018-08-25T18:53:35.498Z,97485.28
2018-08-25T18:56:03.364Z,97493.73
2018-08-25T18:58:31.270Z,97502.08
2018-08-25T19:00:59.059Z,97507.89
2018-08-25T19:03:26.949Z,97515.61
2018-08-25T19:05:55.060Z,97512.72
2018-08-25T19:08:22.759Z,97507.81
2018-08-25T19:10:50.411Z,97514.63
2018-08-25T19:13:18.312Z,97513.73
2018-08-25T19:15:46.175Z,97515.78
2018-08-25T19:18:13.771Z,97517.33
2018-08-25T19:20:41.578Z,97517.83
2018-08-25T19:23:09.430Z,97517.31
2018-08-25T19:25:37.245Z,97517.97
2018-08-25T19:28:05.111Z,97519.09
2018-08-25T19:30:32.763Z,97522.16
2018-08-25T19:33:00.404Z,97525.81
2018-08-25T19:35:28.176Z,97520.10
2018-08-25T19:37:55.754Z,97522.89
2018-08-25T19:40:23.378Z,97527.84
2018-08-25T19:42:51.064Z,97524.30
2018-08-25T19:45:18.695Z,97524.70
2018-08-25T19:47:46.331Z,97528.39
2018-08-25T19:50:14.003Z,97535.09
2018-08-25T19:52:41.719Z,97535.11
2018-08-25T19:55:09.322Z,97534.21
2018-08-25T19:57:37.070Z,97532.45
2018-08-25T20:00:04.881Z,97537.76
2018-08-25T20:02:32.492Z,97536.10
2018-08-25T20:05:00.343Z,97539.91
2018-08-25T20:07:28.414Z,97541.66
2018-08-25T20:09:56.756Z,97538.25
2018-08-25T20:12:24.612Z,97540.61
2018-08-25T20:14:52.293Z,97538.45
2018-08-25T20:17:19.979Z,97538.97
2018-08-25T20:19:47.663Z,97544.56
2018-08-25T20:22:15.283Z,97542.02
2018-08-25T20:24:42.978Z,97543.16
2018-08-25T20:27:10.746Z,97539.49
2018-08-25T20:29:38.431Z,97541.38
2018-08-25T20:32:06.271Z,97541.00
2018-08-25T20:34:33.892Z,97531.25
2018-08-25T20:37:01.577Z,97542.42
2018-08-25T20:39:29.377Z,97544.70
2018-08-25T20:41:57.199Z,97542.97
2018-08-25T20:44:24.851Z,97541.30
2018-08-25T20:46:52.517Z,97544.45
2018-08-25T20:49:20.232Z,97547.37
2018-08-25T20:51:47.880Z,97552.95
2018-08-25T20:54:15.508Z,97547.11
2018-08-25T20:56:43.144Z,97548.89
2018-08-25T20:59:10.730Z,97551.27
2018-08-25T21:01:38.349Z,97551.53
2018-08-25T21:04:06.091Z,97553.03
2018-08-25T21:06:33.806Z,97548.85
2018-08-25T21:09:01.422Z,97551.78
2018-08-25T21:11:29.111Z,97553.08
2018-08-25T21:13:56.806Z,97557.27
2018-08-25T21:16:24.396Z,97566.89
2018-08-25T21:18:52.107Z,97566.89
2018-08-25T21:21:19.755Z,97564.73
2018-08-25T21:23:47.448Z,97562.44
2018-08-25T21:26:15.132Z,97565.22
2018-08-25T21:28:42.774Z,97581.42
2018-08-25T21:31:10.400Z,97581.16
2018-08-25T21:33:38.041Z,97589.52
2018-08-25T21:36:05.656Z,97599.77
2018-08-25T21:38:33.282Z,97600.02
2018-08-25T21:41:00.988Z,97599.52
2018-08-25T21:43:28.609Z,97607.43
2018-08-25T21:45:56.284Z,97606.98
2018-08-25T21:48:24.051Z,97611.70
2018-08-25T21:50:51.656Z,97613.45
2018-08-25T21:53:19.260Z,97615.52
2018-08-25T21:55:46.932Z,97614.27
2018-08-25T21:58:14.627Z,97618.09
2018-08-25T22:00:47.829Z,97614.70
2018-08-25T22:03:15.452Z,97619.48
2018-08-25T22:05:43.057Z,97623.80
2018-08-25T22:08:10.718Z,97624.30
2018-08-25T22:10:38.354Z,97624.94
2018-08-25T22:13:07.112Z,97620.90
2018-08-25T22:15:34.773Z,97628.61
2018-08-25T22:18:02.400Z,97634.70
2018-08-25T22:20:30.043Z,97642.69
2018-08-25T22:22:57.760Z,97630.77
2018-08-25T22:25:25.378Z,97634.42
2018-08-25T22:27:53.015Z,97632.54
2018-08-25T22:30:20.692Z,97632.94
2018-08-25T22:32:48.303Z,97631.66
2018-08-25T22:35:16.019Z,97642.67
2018-08-25T22:37:43.727Z,97640.38
2018-08-25T22:40:11.340Z,97642.16
2018-08-25T22:42:39.007Z,97633.59
2018-08-25T22:45:06.847Z,97639.53
2018-08-25T22:47:34.463Z,97641.54
2018-08-25T22:50:02.108Z,97644.77
2018-08-25T22:52:35.202Z,97642.20
2018-08-25T22:55:02.886Z,97637.05
2018-08-25T22:57:30.622Z,97632.36
2018-08-25T22:59:58.360Z,97640.19
2018-08-25T23:02:30.754Z,97649.06
2018-08-25T23:04:58.424Z,97653.23
2018-08-25T23:07:26.087Z,97652.78
2018-08-25T23:09:53.727Z,97651.88
2018-08-25T23:12:21.431Z,97651.25
2018-08-25T23:14:49.088Z,97649.20
2018-08-25T23:17:16.735Z,97651.84
2018-08-25T23:19:44.419Z,97651.44
2018-08-25T23:22:12.096Z,97661.17
2018-08-25T23:24:39.718Z,97663.44
2018-08-25T23:27:07.406Z,97651.62
2018-08-25T23:29:35.075Z,97635.05
2018-08-25T23:32:02.762Z,97648.56
2018-08-25T23:34:30.439Z,97653.78
2018-08-25T23:36:58.067Z,97647.38
2018-08-25T23:39:25.690Z,97639.48
2018-08-25T23:41:53.354Z,97643.42
2018-08-25T23:44:21.008Z,97646.58
2018-08-25T23:46:48.639Z,97647.03
2018-08-25T23:49:16.308Z,97652.35
2018-08-25T23:51:43.943Z,97657.50
2018-08-25T23:54:11.545Z,97660.04
2018-08-25T23:56:39.193Z,97660.28
2018-08-25T23:59:07.046Z,97666.79
